Denver International Airport
KDEN : now visible

Airfield :











YOU CAN JOIN US ON...

 
LOGIN :

Register | Disclaimer

   EN    FR    IT 

 









Legend :    VFR   Marginal VFR   IFR   Intensive IFR   Very Intensive IFR
Visi :
Ceiling :
>= 8 km
>= 3000ft
5 to 8 km
1000 to 3000 ft
1500m to 5 km
500 to 1000 ft
800 to 1500m
200 to 500 ft
< 800m
< 200 ft
Symbols :   Thunderstorms  Fog  Heavy snow  Heavy precipitations  Wind > 20 kt






- Airport Elevation : 5431 ft
- IATA code : DEN


KDEN - Denver International

CURRENT METAR :
  • 170153Z 13008KT 10SM CLR 11/M08 A3030 RMK AO2 SLP244 T01061083

EXPIRED METARs :
  • 170053Z 10008KT 10SM CLR 12/M07 A3029 RMK AO2 SLP241 T01221067
  • 162353Z 08007KT 10SM FEW090 17/M07 A3028 RMK AO2 SLP223 T01721067 10211 20172 55001

TAF KDEN
Valid from the 17 at 00:00 until the 18 at 06:00 UTC


162339Z 1700/1806 10011KT P6SM FEW100
FM170200 14007KT P6SM SKC
FM170500 22010KT P6SM SKC
FM171500 VRB06KT P6SM SKC
FM172000 10007KT P6SM FEW100
FM180100 14007KT P6SM SKC
FM180500 20007KT P6SM SKC
KZDV FIR / North America



MET'MAP, your aeronautical weather chart ! - Copyright ORBIFLY December 2007 - Disclaimer

ORBIFLY MET'MAP TEAM :

Programming & Development : Alexandra Zaïnal
Concept & original design : Baudouin d'Aumeries
Assistance for programming : Marc-Olivier Méhu
Technical & hardware support : Manuel Goepfert

Contact : metmap@orbifly.com




SOURCES & CREDITS :

   NOAA       Earth
Advisory